createdAt,value
2023-04-10T00:02:24.162Z,99.90
2023-04-10T00:04:51.336Z,99.90
2023-04-10T00:07:18.368Z,99.90
2023-04-10T00:09:45.622Z,99.90
2023-04-10T00:12:12.671Z,99.90
2023-04-10T00:14:39.422Z,99.90
2023-04-10T00:22:18.681Z,99.90
2023-04-10T00:24:45.896Z,99.90
2023-04-10T00:27:12.835Z,99.90
2023-04-10T00:29:39.943Z,99.90
2023-04-10T00:32:06.907Z,99.90
2023-04-10T00:34:33.682Z,99.90
2023-04-10T00:37:00.604Z,99.90
2023-04-10T00:39:27.611Z,99.90
2023-04-10T00:41:55.318Z,99.90
2023-04-10T00:44:23.290Z,99.90
2023-04-10T00:46:50.464Z,99.90
2023-04-10T00:49:18.515Z,99.90
2023-04-10T00:51:45.484Z,99.90
2023-04-10T00:54:12.475Z,99.90
2023-04-10T00:56:40.404Z,99.90
2023-04-10T00:59:07.685Z,99.90
2023-04-10T01:01:34.617Z,99.90
2023-04-10T01:04:02.075Z,99.90
2023-04-10T01:06:57.787Z,99.90
2023-04-10T01:09:44.414Z,99.90
2023-04-10T01:12:39.501Z,99.90
2023-04-10T01:15:12.941Z,99.90
2023-04-10T01:17:50.836Z,99.90
2023-04-10T01:20:23.656Z,99.90
2023-04-10T01:23:21.887Z,99.90
2023-04-10T01:25:54.065Z,99.90
2023-04-10T01:28:21.439Z,99.90
2023-04-10T01:30:52.386Z,99.90
2023-04-10T01:33:22.559Z,99.90
2023-04-10T01:35:58.179Z,99.90
2023-04-10T01:38:27.625Z,99.90
2023-04-10T01:40:56.026Z,99.90
2023-04-10T01:43:26.170Z,99.90
2023-04-10T01:45:53.490Z,99.90
2023-04-10T01:48:21.790Z,99.90
2023-04-10T01:50:49.509Z,99.90
2023-04-10T01:53:17.663Z,99.90
2023-04-10T01:55:44.914Z,99.90
2023-04-10T01:58:12.192Z,99.90
2023-04-10T02:00:43.585Z,99.90
2023-04-10T02:03:11.461Z,99.90
2023-04-10T02:05:50.992Z,99.90
2023-04-10T02:08:37.663Z,99.90
2023-04-10T02:11:15.430Z,99.90
2023-04-10T02:13:43.072Z,99.90
2023-04-10T02:16:11.809Z,99.90
2023-04-10T02:18:40.845Z,99.90
2023-04-10T02:21:08.325Z,99.90
2023-04-10T02:23:36.495Z,99.90
2023-04-10T02:26:10.029Z,99.90
2023-04-10T02:28:40.370Z,99.90
2023-04-10T02:31:07.947Z,99.90
2023-04-10T02:33:34.977Z,99.90
2023-04-10T02:36:02.227Z,99.90
2023-04-10T02:38:29.080Z,99.90
2023-04-10T02:40:56.176Z,99.90
2023-04-10T02:43:23.192Z,99.90
2023-04-10T02:45:49.983Z,99.90
2023-04-10T02:48:16.968Z,99.90
2023-04-10T02:50:46.523Z,99.90
2023-04-10T02:53:16.967Z,99.90
2023-04-10T02:55:43.805Z,99.90
2023-04-10T02:58:13.851Z,99.90
2023-04-10T03:00:41.745Z,99.90
2023-04-10T03:03:08.654Z,99.90
2023-04-10T03:05:36.070Z,99.90
2023-04-10T03:08:02.848Z,99.90
2023-04-10T03:10:29.738Z,99.90
2023-04-10T03:12:56.602Z,99.90
2023-04-10T03:15:23.389Z,99.90
2023-04-10T03:17:50.673Z,99.90
2023-04-10T03:20:17.625Z,99.90
2023-04-10T03:22:44.688Z,99.90
2023-04-10T03:25:11.538Z,99.90
2023-04-10T03:27:38.799Z,99.90
2023-04-10T03:30:06.476Z,99.90
2023-04-10T03:32:33.319Z,99.90
2023-04-10T03:35:00.147Z,99.90
2023-04-10T03:37:29.784Z,99.90
2023-04-10T03:39:56.526Z,99.90
2023-04-10T03:42:23.391Z,99.90
2023-04-10T03:44:50.324Z,99.90
2023-04-10T03:47:17.266Z,99.90
2023-04-10T03:49:44.233Z,99.90
2023-04-10T03:52:11.142Z,99.90
2023-04-10T03:54:37.939Z,99.90
2023-04-10T03:57:05.079Z,99.90
2023-04-10T03:59:38.652Z,99.90
2023-04-10T04:02:07.753Z,99.90
2023-04-10T04:04:34.922Z,99.90
2023-04-10T04:07:02.041Z,99.90
2023-04-10T04:09:28.841Z,99.90
2023-04-10T04:11:56.374Z,99.90
2023-04-10T04:14:23.895Z,99.90
2023-04-10T04:16:51.010Z,99.90
2023-04-10T04:19:17.877Z,99.90
2023-04-10T04:21:44.628Z,99.90
2023-04-10T04:24:11.517Z,99.90
2023-04-10T04:26:38.360Z,99.90
2023-04-10T04:29:05.323Z,99.90
2023-04-10T04:31:32.838Z,99.90
2023-04-10T04:34:00.589Z,99.90
2023-04-10T04:36:28.214Z,99.90
2023-04-10T04:38:55.357Z,99.90
2023-04-10T04:41:22.231Z,99.90
2023-04-10T04:43:49.533Z,99.90
2023-04-10T04:46:16.312Z,99.90
2023-04-10T04:48:43.143Z,99.90
2023-04-10T04:51:10.013Z,99.90
2023-04-10T04:53:37.014Z,99.90
2023-04-10T04:56:04.109Z,99.90
2023-04-10T04:58:31.248Z,99.90
2023-04-10T05:00:58.135Z,99.90
2023-04-10T05:03:25.646Z,99.90
2023-04-10T05:05:52.779Z,99.90
2023-04-10T05:08:19.872Z,99.90
2023-04-10T05:10:46.974Z,99.90
2023-04-10T05:13:15.702Z,99.90
2023-04-10T05:15:43.018Z,99.90
2023-04-10T05:18:10.124Z,99.90
2023-04-10T05:20:37.688Z,99.90
2023-04-10T05:23:04.682Z,99.90
2023-04-10T05:25:31.774Z,99.90
2023-04-10T05:27:58.770Z,99.90
2023-04-10T05:30:25.978Z,99.90
2023-04-10T05:32:52.822Z,99.90
2023-04-10T05:35:19.732Z,99.90
2023-04-10T05:37:46.762Z,99.90
2023-04-10T05:40:13.620Z,99.90
2023-04-10T05:42:41.411Z,99.90
2023-04-10T05:45:09.343Z,99.90
2023-04-10T05:47:36.314Z,99.90
2023-04-10T05:50:03.319Z,99.90
2023-04-10T05:52:31.027Z,99.90
2023-04-10T05:54:58.065Z,99.90
2023-04-10T05:57:25.925Z,99.90
2023-04-10T05:59:52.680Z,99.90
2023-04-10T06:02:19.688Z,99.90
2023-04-10T06:04:46.934Z,99.90
2023-04-10T06:07:13.848Z,99.90
2023-04-10T06:09:40.782Z,99.90
2023-04-10T06:12:07.877Z,99.90
2023-04-10T06:14:35.221Z,99.90
2023-04-10T06:17:02.198Z,99.90
2023-04-10T06:19:28.970Z,99.90
2023-04-10T06:21:55.874Z,99.90
2023-04-10T06:24:22.736Z,99.90
2023-04-10T06:26:49.705Z,99.90
2023-04-10T06:29:16.697Z,99.90
2023-04-10T06:31:44.220Z,99.90
2023-04-10T06:34:11.248Z,99.90
2023-04-10T06:36:38.675Z,99.90
2023-04-10T06:39:06.612Z,99.90
2023-04-10T06:41:33.676Z,99.90
2023-04-10T06:44:01.887Z,99.90
2023-04-10T06:46:30.640Z,99.90
2023-04-10T06:48:57.591Z,99.90
2023-04-10T06:51:25.961Z,99.90
2023-04-10T06:53:52.874Z,99.90
2023-04-10T06:56:20.471Z,99.90
2023-04-10T06:58:47.390Z,99.90
2023-04-10T07:01:14.353Z,99.90
2023-04-10T07:03:41.450Z,99.90
2023-04-10T07:06:09.923Z,99.90
2023-04-10T07:08:36.911Z,99.90
2023-04-10T07:11:03.785Z,99.90
2023-04-10T07:13:30.690Z,99.90
2023-04-10T07:15:57.629Z,99.90
2023-04-10T07:18:24.632Z,99.90
2023-04-10T07:20:51.879Z,99.90
2023-04-10T07:23:19.706Z,99.90
2023-04-10T07:25:46.888Z,99.90
2023-04-10T07:28:13.886Z,99.90
2023-04-10T07:30:40.676Z,99.90
2023-04-10T07:33:07.849Z,99.90
2023-04-10T07:35:35.060Z,99.90
2023-04-10T07:38:01.933Z,99.90
2023-04-10T07:40:28.942Z,99.90
2023-04-10T07:42:55.853Z,99.90
2023-04-10T07:45:22.693Z,99.90
2023-04-10T07:47:49.562Z,99.90
2023-04-10T07:50:16.385Z,99.90
2023-04-10T07:52:43.174Z,99.90
2023-04-10T07:55:10.507Z,99.90
2023-04-10T07:57:37.582Z,99.90
2023-04-10T08:00:05.076Z,99.90
2023-04-10T08:02:32.184Z,99.90
2023-04-10T08:04:59.063Z,99.90
2023-04-10T08:07:25.918Z,99.90
2023-04-10T08:09:52.641Z,99.90
2023-04-10T08:12:19.331Z,99.90
2023-04-10T08:14:46.062Z,99.90
2023-04-10T08:17:14.913Z,99.90
2023-04-10T08:19:43.375Z,99.90
2023-04-10T08:22:10.401Z,99.90
2023-04-10T08:24:37.135Z,99.90
2023-04-10T08:27:03.913Z,99.90
2023-04-10T08:29:30.899Z,99.90
2023-04-10T08:32:00.674Z,99.90
2023-04-10T08:34:28.235Z,99.90
2023-04-10T08:36:55.542Z,99.90
2023-04-10T08:39:22.367Z,99.90
2023-04-10T08:41:49.292Z,99.90
2023-04-10T08:44:16.826Z,99.90
2023-04-10T08:46:45.325Z,99.90
2023-04-10T08:49:21.982Z,99.90
2023-04-10T08:51:59.145Z,99.90
2023-04-10T08:54:30.729Z,99.90
2023-04-10T08:56:58.617Z,99.90
2023-04-10T08:59:25.635Z,99.90
2023-04-10T09:01:53.565Z,99.90
2023-04-10T09:04:21.285Z,99.90
2023-04-10T09:06:48.117Z,99.90
2023-04-10T09:09:14.853Z,99.90
2023-04-10T09:11:56.358Z,99.90
2023-04-10T09:14:24.915Z,99.90
2023-04-10T09:16:53.272Z,99.90
2023-04-10T09:19:33.448Z,99.90
2023-04-10T09:22:00.397Z,99.90
2023-04-10T09:24:27.346Z,99.90
2023-04-10T09:26:54.732Z,99.90
2023-04-10T09:29:21.610Z,99.90
2023-04-10T09:31:48.477Z,99.90
2023-04-10T09:34:23.355Z,99.90
2023-04-10T09:36:58.638Z,99.90
2023-04-10T09:39:37.085Z,99.90
2023-04-10T09:42:04.303Z,99.90
2023-04-10T09:44:32.817Z,99.90
2023-04-10T09:47:20.156Z,99.90
2023-04-10T09:49:55.110Z,99.90
2023-04-10T09:52:27.765Z,99.90
2023-04-10T09:54:57.423Z,99.90
2023-04-10T09:57:26.228Z,99.90
2023-04-10T09:59:55.078Z,99.90
2023-04-10T10:02:24.533Z,99.90
2023-04-10T10:04:52.725Z,99.90
2023-04-10T10:07:21.413Z,99.90
2023-04-10T10:09:50.388Z,99.90
2023-04-10T10:12:34.550Z,99.90
2023-04-10T10:15:08.973Z,99.90
2023-04-10T10:17:43.533Z,99.90
2023-04-10T10:20:11.795Z,99.90
2023-04-10T10:22:39.539Z,99.90
2023-04-10T10:25:08.348Z,99.90
2023-04-10T10:27:38.758Z,99.90
2023-04-10T10:30:20.356Z,99.90
2023-04-10T10:32:54.643Z,99.90
2023-04-10T10:35:22.987Z,99.90
2023-04-10T10:37:51.086Z,99.90
2023-04-10T10:40:56.838Z,99.90
2023-04-10T10:43:56.884Z,99.90
2023-04-10T10:46:48.849Z,99.90
2023-04-10T10:49:15.968Z,99.90
2023-04-10T10:51:50.551Z,99.90
2023-04-10T10:54:34.978Z,99.90
2023-04-10T10:57:05.413Z,99.90
2023-04-10T10:59:48.130Z,99.90
2023-04-10T11:02:19.555Z,99.90
2023-04-10T11:04:48.075Z,99.90
2023-04-10T11:07:16.188Z,99.90
2023-04-10T11:09:57.231Z,99.90
2023-04-10T11:12:25.465Z,99.90
2023-04-10T11:15:00.632Z,99.90
2023-04-10T11:17:46.784Z,99.90
2023-04-10T11:20:13.579Z,99.90
2023-04-10T11:23:12.771Z,99.90
2023-04-10T11:25:52.951Z,99.90
2023-04-10T11:28:33.188Z,99.90
2023-04-10T11:31:21.816Z,99.90
2023-04-10T11:33:52.133Z,99.90
2023-04-10T11:36:19.104Z,99.90
2023-04-10T11:38:59.434Z,99.90
2023-04-10T11:41:34.505Z,99.90
2023-04-10T11:44:03.274Z,99.90
2023-04-10T11:46:31.006Z,99.90
2023-04-10T11:49:03.872Z,99.90
2023-04-10T11:51:31.686Z,99.90
2023-04-10T11:54:12.200Z,99.90
2023-04-10T11:56:42.125Z,99.90
2023-04-10T11:59:11.215Z,99.90
2023-04-10T12:01:42.112Z,99.90
2023-04-10T12:04:17.926Z,99.90
2023-04-10T12:06:51.398Z,99.90
2023-04-10T12:09:21.285Z,99.90
2023-04-10T12:11:59.374Z,99.90
2023-04-10T12:14:36.984Z,99.90
2023-04-10T12:17:05.696Z,99.90
2023-04-10T12:19:33.805Z,99.90
2023-04-10T12:22:04.007Z,99.90
2023-04-10T12:24:53.960Z,99.90
2023-04-10T12:27:27.871Z,99.90
2023-04-10T12:29:56.948Z,99.90
2023-04-10T12:32:25.017Z,99.90
2023-04-10T12:34:53.217Z,99.90
2023-04-10T12:37:20.837Z,99.90
2023-04-10T12:39:47.815Z,99.90
2023-04-10T12:42:20.692Z,99.90
2023-04-10T12:44:55.847Z,99.90
2023-04-10T12:47:24.020Z,99.90
2023-04-10T12:50:11.118Z,99.90
2023-04-10T12:52:45.290Z,99.90
2023-04-10T12:55:16.215Z,99.90
2023-04-10T12:57:47.816Z,99.90
2023-04-10T13:00:19.999Z,99.90
2023-04-10T13:02:48.703Z,99.90
2023-04-10T13:05:15.991Z,99.90
2023-04-10T13:07:42.909Z,99.90
2023-04-10T13:10:10.397Z,99.90
2023-04-10T13:12:38.995Z,99.60
2023-04-10T13:15:07.740Z,98.10
2023-04-10T13:17:34.915Z,97.60
2023-04-10T13:20:02.018Z,98.00
2023-04-10T13:22:28.800Z,99.60
2023-04-10T13:24:55.612Z,99.90
2023-04-10T13:27:22.402Z,99.90
2023-04-10T13:29:49.158Z,99.90
2023-04-10T13:32:15.928Z,99.90
2023-04-10T13:34:42.707Z,99.90
2023-04-10T13:37:13.030Z,99.90
2023-04-10T13:39:39.807Z,99.90
2023-04-10T13:42:06.584Z,99.90
2023-04-10T13:44:33.378Z,99.90
2023-04-10T13:47:00.181Z,99.90
2023-04-10T13:49:30.411Z,99.90
2023-04-10T13:51:58.029Z,99.90
2023-04-10T13:54:29.563Z,99.90
2023-04-10T13:56:57.769Z,99.90
2023-04-10T13:59:25.025Z,99.70
2023-04-10T14:01:52.789Z,98.20
2023-04-10T14:04:20.013Z,98.50
2023-04-10T14:06:47.012Z,98.80
2023-04-10T14:09:13.776Z,99.10
2023-04-10T14:11:40.560Z,99.70
2023-04-10T14:14:07.372Z,99.40
2023-04-10T14:16:34.231Z,99.20
2023-04-10T14:19:00.962Z,99.00
2023-04-10T14:21:27.727Z,98.90
2023-04-10T14:23:54.459Z,98.40
2023-04-10T14:26:21.640Z,97.90
2023-04-10T14:28:48.370Z,97.40
2023-04-10T14:31:15.468Z,96.60
2023-04-10T14:33:42.226Z,96.50
2023-04-10T14:36:09.514Z,96.40
2023-04-10T14:38:36.968Z,96.50
2023-04-10T14:41:03.845Z,96.10
2023-04-10T14:43:30.696Z,95.60
2023-04-10T14:45:57.429Z,94.60
2023-04-10T14:48:24.264Z,93.80
2023-04-10T14:50:51.045Z,93.90
2023-04-10T14:53:17.855Z,93.60
2023-04-10T14:55:44.617Z,94.10
2023-04-10T14:58:11.405Z,94.70
2023-04-10T15:00:38.307Z,95.30
2023-04-10T15:03:06.504Z,95.50
2023-04-10T15:05:33.555Z,96.70
2023-04-10T15:08:00.341Z,96.50
2023-04-10T15:10:30.723Z,96.40
2023-04-10T15:12:57.462Z,95.80
2023-04-10T15:15:24.253Z,95.20
2023-04-10T15:17:51.035Z,94.80
2023-04-10T15:20:17.820Z,94.50
2023-04-10T15:22:45.069Z,93.80
2023-04-10T15:25:14.863Z,94.10
2023-04-10T15:27:41.988Z,94.20
2023-04-10T15:30:09.079Z,94.80
2023-04-10T15:32:38.106Z,95.50
2023-04-10T15:35:05.502Z,96.10
2023-04-10T15:37:34.456Z,96.50
2023-04-10T15:40:01.265Z,96.90
2023-04-10T15:42:28.172Z,97.60
2023-04-10T15:44:54.946Z,98.30
2023-04-10T15:47:21.725Z,99.10
2023-04-10T15:49:48.504Z,99.60
2023-04-10T15:52:16.449Z,99.90
2023-04-10T15:54:44.467Z,99.90
2023-04-10T15:57:11.470Z,99.90
2023-04-10T15:59:38.504Z,99.90
2023-04-10T16:02:05.613Z,99.90
2023-04-10T16:04:32.566Z,99.90
2023-04-10T16:06:59.803Z,99.90
2023-04-10T16:09:27.235Z,99.90
2023-04-10T16:11:56.013Z,99.90
2023-04-10T16:14:23.056Z,99.90
2023-04-10T16:16:51.200Z,99.90
2023-04-10T16:19:17.929Z,99.90
2023-04-10T16:21:44.872Z,99.90
2023-04-10T16:24:11.811Z,99.90
2023-04-10T16:26:38.995Z,99.90
2023-04-10T16:29:06.575Z,99.90
2023-04-10T16:31:33.527Z,99.90
2023-04-10T16:34:01.394Z,99.90
2023-04-10T16:36:28.313Z,99.90
2023-04-10T16:38:55.634Z,99.90
2023-04-10T16:41:23.077Z,99.90
2023-04-10T16:43:50.238Z,99.90
2023-04-10T16:46:17.198Z,99.90
2023-04-10T16:48:44.385Z,99.90
2023-04-10T16:51:20.261Z,99.90
2023-04-10T16:53:47.223Z,99.90
2023-04-10T16:56:15.266Z,99.90
2023-04-10T16:58:42.776Z,99.90
2023-04-10T17:01:18.017Z,99.90
2023-04-10T17:03:47.539Z,99.90
2023-04-10T17:06:16.095Z,99.90
2023-04-10T17:08:43.817Z,99.90
2023-04-10T17:11:12.729Z,99.90
2023-04-10T17:13:42.856Z,99.90
2023-04-10T17:16:10.004Z,99.90
2023-04-10T17:18:36.967Z,99.90
2023-04-10T17:21:03.951Z,99.90
2023-04-10T17:23:30.866Z,99.90
2023-04-10T17:25:57.895Z,99.90
2023-04-10T17:28:24.808Z,99.90
2023-04-10T17:30:51.555Z,99.90
2023-04-10T17:33:18.464Z,99.90
2023-04-10T17:35:45.518Z,99.90
2023-04-10T17:38:12.344Z,99.90
2023-04-10T17:40:41.172Z,99.90
2023-04-10T17:43:08.521Z,99.90
2023-04-10T17:45:39.795Z,99.90
2023-04-10T17:48:07.581Z,99.90
2023-04-10T17:50:35.059Z,99.90
2023-04-10T17:53:01.858Z,99.90
2023-04-10T17:55:28.601Z,99.90
2023-04-10T17:57:57.950Z,99.90
2023-04-10T18:00:25.132Z,99.90
2023-04-10T18:02:58.053Z,99.90
2023-04-10T18:05:25.325Z,99.90
2023-04-10T18:07:52.281Z,99.90
2023-04-10T18:10:19.457Z,99.90
2023-04-10T18:12:46.383Z,99.90
2023-04-10T18:15:16.420Z,99.90
2023-04-10T18:17:43.378Z,99.90
2023-04-10T18:20:10.677Z,99.90
2023-04-10T18:22:37.394Z,99.90
2023-04-10T18:25:05.286Z,99.90
2023-04-10T18:27:34.376Z,99.90
2023-04-10T18:30:01.265Z,99.90
2023-04-10T18:32:27.998Z,99.90
2023-04-10T18:34:54.730Z,99.90
2023-04-10T18:37:21.460Z,99.90
2023-04-10T18:39:48.372Z,99.90
2023-04-10T18:42:15.221Z,99.90
2023-04-10T18:44:42.194Z,99.90
2023-04-10T18:47:11.033Z,99.90
2023-04-10T18:49:38.006Z,99.90
2023-04-10T18:52:04.910Z,99.90
2023-04-10T18:54:33.879Z,99.90
2023-04-10T18:57:01.003Z,99.90
2023-04-10T18:59:28.385Z,99.90
2023-04-10T19:01:55.998Z,99.90
2023-04-10T19:04:23.089Z,99.90
2023-04-10T19:06:50.511Z,99.90
2023-04-10T19:09:17.282Z,99.90
2023-04-10T19:11:44.043Z,99.90
2023-04-10T19:14:10.817Z,99.90
2023-04-10T19:16:37.629Z,99.90
2023-04-10T19:19:04.422Z,99.90
2023-04-10T19:21:31.781Z,99.90
2023-04-10T19:23:58.734Z,99.90
2023-04-10T19:26:25.532Z,99.90
2023-04-10T19:28:52.240Z,99.90
2023-04-10T19:31:19.686Z,99.90
2023-04-10T19:33:46.553Z,99.90
2023-04-10T19:36:16.424Z,99.90
2023-04-10T19:38:48.523Z,99.90
2023-04-10T19:41:17.598Z,99.90
2023-04-10T19:43:44.764Z,99.90
2023-04-10T19:46:19.099Z,99.90
2023-04-10T19:48:46.723Z,99.90
2023-04-10T19:51:13.633Z,99.90
2023-04-10T19:53:41.903Z,99.90
2023-04-10T19:56:08.812Z,99.90
2023-04-10T19:58:41.211Z,99.90
2023-04-10T20:01:09.324Z,99.90
2023-04-10T20:03:38.621Z,99.90
2023-04-10T20:06:09.017Z,99.90
2023-04-10T20:08:36.617Z,99.90
2023-04-10T20:11:06.263Z,99.90
2023-04-10T20:13:34.839Z,99.90
2023-04-10T20:16:03.095Z,99.90
2023-04-10T20:18:31.671Z,99.90
2023-04-10T20:20:58.601Z,99.90
2023-04-10T20:23:25.453Z,99.90
2023-04-10T20:25:52.536Z,99.90
2023-04-10T20:28:19.502Z,99.90
2023-04-10T20:30:46.386Z,99.90
2023-04-10T20:33:13.840Z,99.90
2023-04-10T20:35:40.919Z,99.90
2023-04-10T20:38:07.809Z,99.90
2023-04-10T20:40:35.924Z,99.90
2023-04-10T20:43:02.780Z,99.90
2023-04-10T20:45:30.796Z,99.90
2023-04-10T20:47:57.934Z,99.90
2023-04-10T20:50:24.781Z,99.90
2023-04-10T20:52:51.782Z,99.90
2023-04-10T20:55:18.620Z,99.90
2023-04-10T20:57:45.506Z,99.90
2023-04-10T21:00:13.170Z,99.90
2023-04-10T21:02:41.191Z,99.90
2023-04-10T21:05:08.790Z,99.90
2023-04-10T21:07:35.542Z,99.90
2023-04-10T21:10:02.414Z,99.90
2023-04-10T21:12:29.217Z,99.90
2023-04-10T21:14:56.113Z,99.90
2023-04-10T21:17:23.561Z,99.90
2023-04-10T21:19:50.584Z,99.90
2023-04-10T21:22:17.431Z,99.90
2023-04-10T21:24:46.297Z,99.90
2023-04-10T21:27:13.291Z,99.90
2023-04-10T21:29:40.309Z,99.90
2023-04-10T21:32:07.188Z,99.90
2023-04-10T21:34:34.106Z,99.90
2023-04-10T21:37:01.054Z,99.90
2023-04-10T21:39:29.389Z,99.90
2023-04-10T21:41:56.315Z,99.90
2023-04-10T21:44:23.196Z,99.90
2023-04-10T21:46:49.934Z,99.90
2023-04-10T21:49:16.838Z,99.90
2023-04-10T21:51:43.749Z,99.90
2023-04-10T21:54:10.497Z,99.90
2023-04-10T21:56:38.818Z,99.90
2023-04-10T21:59:05.925Z,99.90
2023-04-10T22:01:33.864Z,99.90
2023-04-10T22:04:01.011Z,99.90
2023-04-10T22:06:27.978Z,99.90
2023-04-10T22:08:54.901Z,99.90
2023-04-10T22:11:21.890Z,99.90
2023-04-10T22:13:48.813Z,99.90
2023-04-10T22:16:15.780Z,99.90
2023-04-10T22:18:42.713Z,99.90
2023-04-10T22:21:09.604Z,99.90
2023-04-10T22:23:36.490Z,99.90
2023-04-10T22:26:03.285Z,99.90
2023-04-10T22:28:30.187Z,99.90
2023-04-10T22:30:57.077Z,99.90
2023-04-10T22:33:24.311Z,99.90
2023-04-10T22:35:53.629Z,99.90
2023-04-10T22:38:20.606Z,99.90
2023-04-10T22:40:47.406Z,99.90
2023-04-10T22:43:14.253Z,99.90
2023-04-10T22:45:42.096Z,99.90
2023-04-10T22:48:08.862Z,99.90
2023-04-10T22:50:36.191Z,99.90
2023-04-10T22:53:03.176Z,99.90
2023-04-10T22:55:30.065Z,99.90
2023-04-10T22:57:56.837Z,99.90
2023-04-10T23:00:23.744Z,99.90
2023-04-10T23:02:50.574Z,99.90
2023-04-10T23:05:17.670Z,99.90
2023-04-10T23:07:44.594Z,99.90
2023-04-10T23:10:11.436Z,99.90
2023-04-10T23:12:38.219Z,99.90
2023-04-10T23:15:06.334Z,99.90
2023-04-10T23:17:33.385Z,99.90
2023-04-10T23:20:00.131Z,99.90
2023-04-10T23:22:31.137Z,99.90
2023-04-10T23:24:58.148Z,99.90
2023-04-10T23:27:25.265Z,99.90
2023-04-10T23:29:52.303Z,99.90
2023-04-10T23:32:19.099Z,99.90
2023-04-10T23:34:46.045Z,99.90
2023-04-10T23:37:12.840Z,99.90
2023-04-10T23:39:39.941Z,99.90
2023-04-10T23:42:06.820Z,99.90
2023-04-10T23:44:33.732Z,99.90
2023-04-10T23:47:00.791Z,99.90
2023-04-10T23:49:28.960Z,99.90
2023-04-10T23:51:55.745Z,99.90
2023-04-10T23:54:22.608Z,99.90
2023-04-10T23:56:49.399Z,99.90
2023-04-10T23:59:17.051Z,99.90
